sensor_id;sensor_type;location;lat;lon;timestamp;pressure;altitude;pressure_sealevel;temperature;humidity
59588;BME280;45412;54.472;18.464;2023-03-04T00:01:34;99130.86;;;2.26;91.84
59588;BME280;45412;54.472;18.464;2023-03-04T00:04:22;99128.55;;;2.30;91.42
59588;BME280;45412;54.472;18.464;2023-03-04T00:07:10;99121.52;;;2.34;91.08
59588;BME280;45412;54.472;18.464;2023-03-04T00:10:04;99121.09;;;2.35;91.18
59588;BME280;45412;54.472;18.464;2023-03-04T00:12:53;99117.64;;;2.37;91.23
59588;BME280;45412;54.472;18.464;2023-03-04T00:15:41;99120.31;;;2.39;90.92
59588;BME280;45412;54.472;18.464;2023-03-04T00:18:29;99114.48;;;2.43;90.84
59588;BME280;45412;54.472;18.464;2023-03-04T00:21:17;99114.34;;;2.46;90.93
59588;BME280;45412;54.472;18.464;2023-03-04T00:24:06;99106.18;;;2.47;90.71
59588;BME280;45412;54.472;18.464;2023-03-04T00:26:53;99109.18;;;2.50;90.45
59588;BME280;45412;54.472;18.464;2023-03-04T00:29:41;99105.96;;;2.51;90.41
59588;BME280;45412;54.472;18.464;2023-03-04T00:32:29;99106.32;;;2.54;90.35
59588;BME280;45412;54.472;18.464;2023-03-04T00:35:18;99103.77;;;2.55;90.16
59588;BME280;45412;54.472;18.464;2023-03-04T00:38:07;99098.34;;;2.55;90.06
59588;BME280;45412;54.472;18.464;2023-03-04T00:40:56;99089.73;;;2.56;89.95
59588;BME280;45412;54.472;18.464;2023-03-04T00:43:44;99088.66;;;2.56;89.79
59588;BME280;45412;54.472;18.464;2023-03-04T00:46:32;99085.39;;;2.55;89.91
59588;BME280;45412;54.472;18.464;2023-03-04T00:49:21;99081.94;;;2.54;89.94
59588;BME280;45412;54.472;18.464;2023-03-04T00:52:09;99078.15;;;2.53;89.89
59588;BME280;45412;54.472;18.464;2023-03-04T00:54:57;99083.67;;;2.52;89.96
59588;BME280;45412;54.472;18.464;2023-03-04T00:57:45;99077.80;;;2.50;89.78
59588;BME280;45412;54.472;18.464;2023-03-04T01:00:35;99077.56;;;2.49;89.98
59588;BME280;45412;54.472;18.464;2023-03-04T01:03:23;99077.95;;;2.48;89.98
59588;BME280;45412;54.472;18.464;2023-03-04T01:06:13;99069.45;;;2.47;89.99
59588;BME280;45412;54.472;18.464;2023-03-04T01:09:02;99070.23;;;2.45;89.79
59588;BME280;45412;54.472;18.464;2023-03-04T01:11:50;99069.86;;;2.46;89.59
59588;BME280;45412;54.472;18.464;2023-03-04T01:14:38;99071.73;;;2.47;89.43
59588;BME280;45412;54.472;18.464;2023-03-04T01:17:27;99072.34;;;2.48;89.43
59588;BME280;45412;54.472;18.464;2023-03-04T01:20:16;99071.13;;;2.48;89.24
59588;BME280;45412;54.472;18.464;2023-03-04T01:23:04;99069.20;;;2.48;89.14
59588;BME280;45412;54.472;18.464;2023-03-04T01:25:52;99065.19;;;2.47;89.39
59588;BME280;45412;54.472;18.464;2023-03-04T01:28:40;99060.08;;;2.48;89.31
59588;BME280;45412;54.472;18.464;2023-03-04T01:31:29;99061.70;;;2.50;89.28
59588;BME280;45412;54.472;18.464;2023-03-04T01:34:17;99057.55;;;2.52;88.99
59588;BME280;45412;54.472;18.464;2023-03-04T01:37:05;99061.84;;;2.54;88.92
59588;BME280;45412;54.472;18.464;2023-03-04T01:39:53;99063.77;;;2.54;89.05
59588;BME280;45412;54.472;18.464;2023-03-04T01:42:43;99062.40;;;2.53;89.07
59588;BME280;45412;54.472;18.464;2023-03-04T01:45:31;99063.70;;;2.52;89.05
59588;BME280;45412;54.472;18.464;2023-03-04T01:48:40;99050.89;;;2.50;89.25
59588;BME280;45412;54.472;18.464;2023-03-04T01:51:29;99044.26;;;2.46;89.13
59588;BME280;45412;54.472;18.464;2023-03-04T01:54:18;99045.27;;;2.44;89.14
59588;BME280;45412;54.472;18.464;2023-03-04T01:57:24;99046.46;;;2.42;89.12
59588;BME280;45412;54.472;18.464;2023-03-04T02:00:32;99048.27;;;2.35;89.39
59588;BME280;45412;54.472;18.464;2023-03-04T02:03:21;99043.74;;;2.29;89.90
59588;BME280;45412;54.472;18.464;2023-03-04T02:06:09;99049.97;;;2.24;89.77
59588;BME280;45412;54.472;18.464;2023-03-04T02:08:57;99050.71;;;2.20;90.21
59588;BME280;45412;54.472;18.464;2023-03-04T02:11:46;99046.50;;;2.17;90.10
59588;BME280;45412;54.472;18.464;2023-03-04T02:14:37;99043.29;;;2.13;90.36
59588;BME280;45412;54.472;18.464;2023-03-04T02:17:27;99039.98;;;2.09;90.58
59588;BME280;45412;54.472;18.464;2023-03-04T02:21:21;99038.03;;;2.03;90.86
59588;BME280;45412;54.472;18.464;2023-03-04T02:24:14;99038.09;;;1.99;91.19
59588;BME280;45412;54.472;18.464;2023-03-04T02:27:06;99036.73;;;1.96;91.53
59588;BME280;45412;54.472;18.464;2023-03-04T02:29:54;99034.23;;;1.94;91.46
59588;BME280;45412;54.472;18.464;2023-03-04T02:32:42;99035.58;;;1.89;92.12
59588;BME280;45412;54.472;18.464;2023-03-04T02:35:31;99032.89;;;1.84;92.08
59588;BME280;45412;54.472;18.464;2023-03-04T02:38:20;99039.10;;;1.79;92.55
59588;BME280;45412;54.472;18.464;2023-03-04T02:41:13;99033.55;;;1.76;93.32
59588;BME280;45412;54.472;18.464;2023-03-04T02:44:15;99033.46;;;1.71;93.41
59588;BME280;45412;54.472;18.464;2023-03-04T02:47:07;99036.02;;;1.66;94.07
59588;BME280;45412;54.472;18.464;2023-03-04T02:49:56;99035.16;;;1.62;94.55
59588;BME280;45412;54.472;18.464;2023-03-04T02:52:44;99036.09;;;1.62;95.11
59588;BME280;45412;54.472;18.464;2023-03-04T02:55:32;99034.61;;;1.60;94.67
59588;BME280;45412;54.472;18.464;2023-03-04T02:58:20;99038.61;;;1.57;95.28
59588;BME280;45412;54.472;18.464;2023-03-04T03:01:09;99041.86;;;1.55;95.40
59588;BME280;45412;54.472;18.464;2023-03-04T03:03:57;99049.55;;;1.55;95.78
59588;BME280;45412;54.472;18.464;2023-03-04T03:06:46;99046.98;;;1.55;95.58
59588;BME280;45412;54.472;18.464;2023-03-04T03:09:35;99041.73;;;1.55;95.65
59588;BME280;45412;54.472;18.464;2023-03-04T03:12:23;99039.14;;;1.57;96.00
59588;BME280;45412;54.472;18.464;2023-03-04T03:15:12;99037.44;;;1.59;95.94
59588;BME280;45412;54.472;18.464;2023-03-04T03:18:00;99023.98;;;1.59;95.73
59588;BME280;45412;54.472;18.464;2023-03-04T03:20:49;99023.48;;;1.56;95.81
59588;BME280;45412;54.472;18.464;2023-03-04T03:23:37;99027.33;;;1.52;95.46
59588;BME280;45412;54.472;18.464;2023-03-04T03:26:26;99027.57;;;1.48;95.77
59588;BME280;45412;54.472;18.464;2023-03-04T03:29:14;99027.95;;;1.44;95.80
59588;BME280;45412;54.472;18.464;2023-03-04T03:32:02;99030.60;;;1.41;96.02
59588;BME280;45412;54.472;18.464;2023-03-04T03:34:50;99030.85;;;1.37;95.99
59588;BME280;45412;54.472;18.464;2023-03-04T03:37:39;99028.66;;;1.32;96.17
59588;BME280;45412;54.472;18.464;2023-03-04T03:40:27;99031.19;;;1.27;95.91
59588;BME280;45412;54.472;18.464;2023-03-04T03:43:15;99029.27;;;1.21;96.12
59588;BME280;45412;54.472;18.464;2023-03-04T03:46:03;99024.63;;;1.16;96.31
59588;BME280;45412;54.472;18.464;2023-03-04T03:48:52;99025.34;;;1.13;96.19
59588;BME280;45412;54.472;18.464;2023-03-04T03:51:40;99018.42;;;1.09;95.87
59588;BME280;45412;54.472;18.464;2023-03-04T03:54:28;99015.61;;;1.06;96.05
59588;BME280;45412;54.472;18.464;2023-03-04T03:57:16;99017.67;;;1.03;95.92
59588;BME280;45412;54.472;18.464;2023-03-04T04:00:06;99016.67;;;0.99;96.15
59588;BME280;45412;54.472;18.464;2023-03-04T04:03:01;99017.21;;;0.95;96.38
59588;BME280;45412;54.472;18.464;2023-03-04T04:05:50;99016.95;;;0.91;96.06
59588;BME280;45412;54.472;18.464;2023-03-04T04:08:38;99015.67;;;0.85;96.96
59588;BME280;45412;54.472;18.464;2023-03-04T04:11:26;99012.40;;;0.81;97.30
59588;BME280;45412;54.472;18.464;2023-03-04T04:14:15;99018.17;;;0.78;97.21
59588;BME280;45412;54.472;18.464;2023-03-04T04:17:03;99018.17;;;0.75;97.34
59588;BME280;45412;54.472;18.464;2023-03-04T04:19:51;99017.34;;;0.71;97.34
59588;BME280;45412;54.472;18.464;2023-03-04T04:22:39;99015.20;;;0.67;97.58
59588;BME280;45412;54.472;18.464;2023-03-04T04:25:28;99023.02;;;0.65;97.77
59588;BME280;45412;54.472;18.464;2023-03-04T04:28:16;99025.41;;;0.63;98.33
59588;BME280;45412;54.472;18.464;2023-03-04T04:31:08;99021.52;;;0.61;98.70
59588;BME280;45412;54.472;18.464;2023-03-04T04:33:56;99017.52;;;0.60;98.87
59588;BME280;45412;54.472;18.464;2023-03-04T04:36:44;99019.89;;;0.59;98.55
59588;BME280;45412;54.472;18.464;2023-03-04T04:39:32;99016.63;;;0.58;98.50
59588;BME280;45412;54.472;18.464;2023-03-04T04:42:21;99017.58;;;0.56;98.33
59588;BME280;45412;54.472;18.464;2023-03-04T04:45:10;99020.54;;;0.56;98.81
59588;BME280;45412;54.472;18.464;2023-03-04T04:47:58;99020.48;;;0.57;98.93
59588;BME280;45412;54.472;18.464;2023-03-04T04:50:54;99018.70;;;0.58;98.71
59588;BME280;45412;54.472;18.464;2023-03-04T04:53:42;99019.83;;;0.60;98.87
59588;BME280;45412;54.472;18.464;2023-03-04T04:56:32;99019.93;;;0.61;98.82
59588;BME280;45412;54.472;18.464;2023-03-04T04:59:21;99016.82;;;0.64;98.55
59588;BME280;45412;54.472;18.464;2023-03-04T05:02:10;99012.15;;;0.66;98.33
59588;BME280;45412;54.472;18.464;2023-03-04T05:04:58;99010.77;;;0.69;97.87
59588;BME280;45412;54.472;18.464;2023-03-04T05:07:46;99008.14;;;0.73;97.74
59588;BME280;45412;54.472;18.464;2023-03-04T05:10:34;99010.06;;;0.76;97.29
59588;BME280;45412;54.472;18.464;2023-03-04T05:13:22;99003.13;;;0.78;97.06
59588;BME280;45412;54.472;18.464;2023-03-04T05:16:10;99003.66;;;0.81;96.66
59588;BME280;45412;54.472;18.464;2023-03-04T05:19:00;99006.00;;;0.83;96.25
59588;BME280;45412;54.472;18.464;2023-03-04T05:21:48;99007.85;;;0.84;96.00
59588;BME280;45412;54.472;18.464;2023-03-04T05:24:36;99005.09;;;0.87;95.42
59588;BME280;45412;54.472;18.464;2023-03-04T05:27:24;99010.16;;;0.90;95.24
59588;BME280;45412;54.472;18.464;2023-03-04T05:30:13;99008.89;;;0.94;94.83
59588;BME280;45412;54.472;18.464;2023-03-04T05:33:01;99012.16;;;0.98;94.44
59588;BME280;45412;54.472;18.464;2023-03-04T05:35:50;99011.64;;;1.01;94.03
59588;BME280;45412;54.472;18.464;2023-03-04T05:38:38;99015.29;;;1.05;93.95
59588;BME280;45412;54.472;18.464;2023-03-04T05:41:26;99014.14;;;1.07;93.55
59588;BME280;45412;54.472;18.464;2023-03-04T05:44:14;99020.13;;;1.09;93.31
59588;BME280;45412;54.472;18.464;2023-03-04T05:47:02;99021.20;;;1.12;93.03
59588;BME280;45412;54.472;18.464;2023-03-04T05:49:50;99025.52;;;1.13;92.65
59588;BME280;45412;54.472;18.464;2023-03-04T05:52:39;99026.10;;;1.15;92.41
59588;BME280;45412;54.472;18.464;2023-03-04T05:55:27;99024.92;;;1.17;91.94
59588;BME280;45412;54.472;18.464;2023-03-04T05:58:18;99022.84;;;1.21;91.54
59588;BME280;45412;54.472;18.464;2023-03-04T06:01:06;99022.05;;;1.22;91.28
59588;BME280;45412;54.472;18.464;2023-03-04T06:03:54;99026.61;;;1.25;91.16
59588;BME280;45412;54.472;18.464;2023-03-04T06:06:43;99026.89;;;1.26;90.79
59588;BME280;45412;54.472;18.464;2023-03-04T06:09:33;99025.21;;;1.28;90.50
59588;BME280;45412;54.472;18.464;2023-03-04T06:12:21;99031.54;;;1.30;90.21
59588;BME280;45412;54.472;18.464;2023-03-04T06:15:11;99031.29;;;1.32;89.62
59588;BME280;45412;54.472;18.464;2023-03-04T06:17:59;99030.45;;;1.34;89.43
59588;BME280;45412;54.472;18.464;2023-03-04T06:20:48;99033.95;;;1.37;89.01
59588;BME280;45412;54.472;18.464;2023-03-04T06:23:36;99036.98;;;1.43;88.73
59588;BME280;45412;54.472;18.464;2023-03-04T06:26:24;99030.89;;;1.45;88.42
59588;BME280;45412;54.472;18.464;2023-03-04T06:29:13;99033.25;;;1.47;87.82
59588;BME280;45412;54.472;18.464;2023-03-04T06:32:04;99034.02;;;1.48;87.40
59588;BME280;45412;54.472;18.464;2023-03-04T06:34:52;99034.13;;;1.52;87.25
59588;BME280;45412;54.472;18.464;2023-03-04T06:37:41;99032.59;;;1.55;86.00
59588;BME280;45412;54.472;18.464;2023-03-04T06:40:29;99030.84;;;1.58;85.66
59588;BME280;45412;54.472;18.464;2023-03-04T06:43:18;99031.96;;;1.60;84.89
59588;BME280;45412;54.472;18.464;2023-03-04T06:46:08;99026.90;;;1.63;84.19
59588;BME280;45412;54.472;18.464;2023-03-04T06:48:56;99027.23;;;1.63;82.51
59588;BME280;45412;54.472;18.464;2023-03-04T06:51:45;99031.52;;;1.68;82.37
59588;BME280;45412;54.472;18.464;2023-03-04T06:54:33;99031.14;;;1.72;80.48
59588;BME280;45412;54.472;18.464;2023-03-04T06:57:21;99035.55;;;1.77;79.62
59588;BME280;45412;54.472;18.464;2023-03-04T07:00:10;99033.58;;;1.81;78.28
59588;BME280;45412;54.472;18.464;2023-03-04T07:02:58;99037.58;;;1.84;77.54
59588;BME280;45412;54.472;18.464;2023-03-04T07:05:47;99035.31;;;1.87;75.96
59588;BME280;45412;54.472;18.464;2023-03-04T07:08:35;99039.96;;;1.89;74.40
59588;BME280;45412;54.472;18.464;2023-03-04T07:11:23;99046.01;;;1.93;74.60
59588;BME280;45412;54.472;18.464;2023-03-04T07:14:12;99047.25;;;1.99;74.79
59588;BME280;45412;54.472;18.464;2023-03-04T07:17:00;99052.48;;;2.05;74.26
59588;BME280;45412;54.472;18.464;2023-03-04T07:19:48;99055.98;;;2.11;73.49
59588;BME280;45412;54.472;18.464;2023-03-04T07:22:37;99059.60;;;2.15;72.95
59588;BME280;45412;54.472;18.464;2023-03-04T07:25:26;99059.66;;;2.20;72.48
59588;BME280;45412;54.472;18.464;2023-03-04T07:28:14;99062.89;;;2.24;71.81
59588;BME280;45412;54.472;18.464;2023-03-04T07:31:10;99068.29;;;2.28;71.14
59588;BME280;45412;54.472;18.464;2023-03-04T07:34:04;99068.50;;;2.33;70.55
59588;BME280;45412;54.472;18.464;2023-03-04T07:36:53;99072.20;;;2.39;68.13
59588;BME280;45412;54.472;18.464;2023-03-04T07:39:42;99069.52;;;2.37;65.36
59588;BME280;45412;54.472;18.464;2023-03-04T07:42:30;99076.76;;;2.45;62.03
59588;BME280;45412;54.472;18.464;2023-03-04T07:45:23;99080.69;;;2.52;59.81
59588;BME280;45412;54.472;18.464;2023-03-04T07:48:11;99081.28;;;2.57;58.57
59588;BME280;45412;54.472;18.464;2023-03-04T07:51:20;99074.73;;;2.61;56.88
59588;BME280;45412;54.472;18.464;2023-03-04T07:54:09;99080.52;;;2.61;53.81
59588;BME280;45412;54.472;18.464;2023-03-04T07:56:57;99073.84;;;2.58;52.02
59588;BME280;45412;54.472;18.464;2023-03-04T07:59:45;99081.16;;;2.56;52.03
59588;BME280;45412;54.472;18.464;2023-03-04T08:02:33;99080.96;;;2.53;51.67
59588;BME280;45412;54.472;18.464;2023-03-04T08:05:22;99079.95;;;2.47;50.11
59588;BME280;45412;54.472;18.464;2023-03-04T08:08:10;99078.88;;;2.47;51.05
59588;BME280;45412;54.472;18.464;2023-03-04T08:10:58;99078.25;;;2.51;50.85
59588;BME280;45412;54.472;18.464;2023-03-04T08:13:46;99075.46;;;2.51;48.45
59588;BME280;45412;54.472;18.464;2023-03-04T08:16:35;99069.33;;;2.51;48.95
59588;BME280;45412;54.472;18.464;2023-03-04T08:19:23;99069.95;;;2.56;48.97
59588;BME280;45412;54.472;18.464;2023-03-04T08:22:13;99075.48;;;2.60;48.98
59588;BME280;45412;54.472;18.464;2023-03-04T08:25:01;99070.88;;;2.61;48.51
59588;BME280;45412;54.472;18.464;2023-03-04T08:27:49;99066.62;;;2.59;48.63
59588;BME280;45412;54.472;18.464;2023-03-04T08:30:39;99074.42;;;2.57;48.36
59588;BME280;45412;54.472;18.464;2023-03-04T08:33:27;99080.91;;;2.54;48.37
59588;BME280;45412;54.472;18.464;2023-03-04T08:36:16;99077.02;;;2.55;48.80
59588;BME280;45412;54.472;18.464;2023-03-04T08:39:04;99079.84;;;2.60;48.26
59588;BME280;45412;54.472;18.464;2023-03-04T08:41:52;99073.23;;;2.63;48.04
59588;BME280;45412;54.472;18.464;2023-03-04T08:44:40;99075.80;;;2.64;48.58
59588;BME280;45412;54.472;18.464;2023-03-04T08:47:29;99078.96;;;2.66;47.80
59588;BME280;45412;54.472;18.464;2023-03-04T08:50:17;99089.45;;;2.63;45.81
59588;BME280;45412;54.472;18.464;2023-03-04T08:53:09;99089.39;;;2.62;44.85
59588;BME280;45412;54.472;18.464;2023-03-04T08:55:57;99094.41;;;2.63;44.50
59588;BME280;45412;54.472;18.464;2023-03-04T08:58:45;99099.52;;;2.59;44.36
59588;BME280;45412;54.472;18.464;2023-03-04T09:01:34;99099.60;;;2.55;44.66
59588;BME280;45412;54.472;18.464;2023-03-04T09:04:22;99101.90;;;2.54;44.91
59588;BME280;45412;54.472;18.464;2023-03-04T09:07:11;99106.14;;;2.51;44.97
59588;BME280;45412;54.472;18.464;2023-03-04T09:10:00;99107.17;;;2.57;45.55
59588;BME280;45412;54.472;18.464;2023-03-04T09:12:49;99104.27;;;2.62;44.09
59588;BME280;45412;54.472;18.464;2023-03-04T09:15:43;99114.81;;;2.61;43.29
59588;BME280;45412;54.472;18.464;2023-03-04T09:18:32;99116.58;;;2.64;42.76
59588;BME280;45412;54.472;18.464;2023-03-04T09:21:20;99119.66;;;2.65;41.66
59588;BME280;45412;54.472;18.464;2023-03-04T09:24:08;99119.23;;;2.66;41.41
59588;BME280;45412;54.472;18.464;2023-03-04T09:26:56;99122.00;;;2.67;40.62
59588;BME280;45412;54.472;18.464;2023-03-04T09:29:44;99115.73;;;2.66;40.52
59588;BME280;45412;54.472;18.464;2023-03-04T09:32:32;99117.20;;;2.71;40.46
59588;BME280;45412;54.472;18.464;2023-03-04T09:35:20;99120.09;;;2.67;39.74
59588;BME280;45412;54.472;18.464;2023-03-04T09:38:09;99115.93;;;2.69;41.06
59588;BME280;45412;54.472;18.464;2023-03-04T09:41:00;99117.36;;;2.68;40.89
59588;BME280;45412;54.472;18.464;2023-03-04T09:43:52;99112.20;;;2.64;41.49
59588;BME280;45412;54.472;18.464;2023-03-04T09:46:43;99116.19;;;2.70;42.00
59588;BME280;45412;54.472;18.464;2023-03-04T09:49:33;99125.77;;;2.83;41.75
59588;BME280;45412;54.472;18.464;2023-03-04T09:55:54;99113.81;;;2.98;40.79
59588;BME280;45412;54.472;18.464;2023-03-04T09:58:56;99117.63;;;3.13;41.06
59588;BME280;45412;54.472;18.464;2023-03-04T10:01:54;99122.63;;;3.37;40.74
59588;BME280;45412;54.472;18.464;2023-03-04T10:04:52;99126.49;;;3.68;40.40
59588;BME280;45412;54.472;18.464;2023-03-04T10:07:47;99136.21;;;3.91;39.64
59588;BME280;45412;54.472;18.464;2023-03-04T10:10:39;99133.79;;;4.41;37.02
59588;BME280;45412;54.472;18.464;2023-03-04T10:13:38;99130.76;;;4.87;34.45
59588;BME280;45412;54.472;18.464;2023-03-04T10:16:51;99116.68;;;5.42;32.87
59588;BME280;45412;54.472;18.464;2023-03-04T10:19:56;99113.46;;;6.42;32.35
59588;BME280;45412;54.472;18.464;2023-03-04T10:22:51;99120.83;;;6.70;31.80
59588;BME280;45412;54.472;18.464;2023-03-04T10:25:43;99123.09;;;6.64;32.09
59588;BME280;45412;54.472;18.464;2023-03-04T10:28:34;99112.73;;;6.57;32.47
59588;BME280;45412;54.472;18.464;2023-03-04T10:31:37;99117.30;;;6.57;32.63
59588;BME280;45412;54.472;18.464;2023-03-04T10:34:26;99107.86;;;6.81;31.30
59588;BME280;45412;54.472;18.464;2023-03-04T10:37:14;99103.54;;;7.99;29.11
59588;BME280;45412;54.472;18.464;2023-03-04T10:40:03;99104.91;;;9.11;27.21
59588;BME280;45412;54.472;18.464;2023-03-04T10:42:52;99099.44;;;9.39;26.79
59588;BME280;45412;54.472;18.464;2023-03-04T10:45:41;99105.64;;;10.44;25.91
59588;BME280;45412;54.472;18.464;2023-03-04T10:48:31;99105.30;;;11.68;24.40
59588;BME280;45412;54.472;18.464;2023-03-04T10:51:23;99105.86;;;12.70;21.51
59588;BME280;45412;54.472;18.464;2023-03-04T10:54:51;99111.06;;;13.20;20.57
59588;BME280;45412;54.472;18.464;2023-03-04T10:57:43;99107.21;;;14.46;19.38
59588;BME280;45412;54.472;18.464;2023-03-04T11:00:34;99099.91;;;15.13;18.42
59588;BME280;45412;54.472;18.464;2023-03-04T11:06:21;99097.08;;;15.97;17.33
59588;BME280;45412;54.472;18.464;2023-03-04T11:09:27;99103.95;;;16.02;16.44
59588;BME280;45412;54.472;18.464;2023-03-04T11:12:20;99095.02;;;15.98;16.42
59588;BME280;45412;54.472;18.464;2023-03-04T11:15:24;99101.10;;;15.88;17.79
59588;BME280;45412;54.472;18.464;2023-03-04T11:18:15;99106.77;;;14.82;18.40
59588;BME280;45412;54.472;18.464;2023-03-04T11:21:05;99105.79;;;15.15;18.56
59588;BME280;45412;54.472;18.464;2023-03-04T11:24:00;99112.53;;;14.68;18.70
59588;BME280;45412;54.472;18.464;2023-03-04T11:30:26;99113.01;;;13.99;18.68
59588;BME280;45412;54.472;18.464;2023-03-04T11:39:58;99119.54;;;14.23;18.18
59588;BME280;45412;54.472;18.464;2023-03-04T11:43:35;99127.45;;;14.56;17.97
59588;BME280;45412;54.472;18.464;2023-03-04T11:50:20;99137.73;;;13.68;17.05
59588;BME280;45412;54.472;18.464;2023-03-04T11:53:39;99141.17;;;13.20;17.55
59588;BME280;45412;54.472;18.464;2023-03-04T12:00:38;99150.24;;;12.47;17.68
59588;BME280;45412;54.472;18.464;2023-03-04T12:03:41;99148.54;;;12.12;17.88
59588;BME280;45412;54.472;18.464;2023-03-04T12:16:45;99168.18;;;8.99;20.53
59588;BME280;45412;54.472;18.464;2023-03-04T12:22:51;99168.89;;;9.49;20.99
59588;BME280;45412;54.472;18.464;2023-03-04T12:35:46;99173.18;;;7.84;22.71
59588;BME280;45412;54.472;18.464;2023-03-04T12:46:01;99201.36;;;5.34;25.83
59588;BME280;45412;54.472;18.464;2023-03-04T12:55:38;99210.11;;;3.69;27.94
59588;BME280;45412;54.472;18.464;2023-03-04T12:58:30;99217.94;;;3.07;28.14
59588;BME280;45412;54.472;18.464;2023-03-04T13:01:26;99216.73;;;2.67;28.74
59588;BME280;45412;54.472;18.464;2023-03-04T13:08:20;99221.32;;;1.99;27.36
59588;BME280;45412;54.472;18.464;2023-03-04T13:17:47;99225.73;;;2.17;27.26
59588;BME280;45412;54.472;18.464;2023-03-04T13:20:39;99226.39;;;2.61;27.85
59588;BME280;45412;54.472;18.464;2023-03-04T13:23:28;99229.38;;;2.94;28.18
59588;BME280;45412;54.472;18.464;2023-03-04T13:26:38;99220.80;;;3.20;27.80
59588;BME280;45412;54.472;18.464;2023-03-04T13:32:37;99222.42;;;3.19;26.54
59588;BME280;45412;54.472;18.464;2023-03-04T13:38:37;99219.05;;;3.11;26.86
59588;BME280;45412;54.472;18.464;2023-03-04T13:41:31;99225.48;;;3.00;27.00
59588;BME280;45412;54.472;18.464;2023-03-04T13:47:42;99233.89;;;2.83;28.40
59588;BME280;45412;54.472;18.464;2023-03-04T13:50:47;99236.93;;;2.54;29.49
59588;BME280;45412;54.472;18.464;2023-03-04T13:57:09;99245.42;;;2.16;31.04
59588;BME280;45412;54.472;18.464;2023-03-04T13:59:56;99248.36;;;1.78;31.87
59588;BME280;45412;54.472;18.464;2023-03-04T14:02:45;99254.40;;;1.60;32.66
59588;BME280;45412;54.472;18.464;2023-03-04T14:05:33;99267.40;;;1.45;33.20
59588;BME280;45412;54.472;18.464;2023-03-04T14:08:24;99268.65;;;1.28;34.88
59588;BME280;45412;54.472;18.464;2023-03-04T14:11:37;99273.55;;;1.17;36.09
59588;BME280;45412;54.472;18.464;2023-03-04T14:14:29;99285.98;;;1.03;38.03
59588;BME280;45412;54.472;18.464;2023-03-04T14:17:35;99293.15;;;0.89;39.77
59588;BME280;45412;54.472;18.464;2023-03-04T14:20:35;99289.95;;;0.80;40.54
59588;BME280;45412;54.472;18.464;2023-03-04T14:23:33;99291.40;;;0.86;40.76
59588;BME280;45412;54.472;18.464;2023-03-04T14:26:23;99299.40;;;0.97;39.85
59588;BME280;45412;54.472;18.464;2023-03-04T14:29:28;99293.65;;;0.93;39.03
59588;BME280;45412;54.472;18.464;2023-03-04T14:32:18;99299.89;;;0.87;38.48
59588;BME280;45412;54.472;18.464;2023-03-04T14:35:18;99302.35;;;0.73;37.16
59588;BME280;45412;54.472;18.464;2023-03-04T14:38:27;99299.60;;;0.61;36.95
59588;BME280;45412;54.472;18.464;2023-03-04T14:41:26;99297.58;;;0.53;37.09
59588;BME280;45412;54.472;18.464;2023-03-04T14:44:45;99300.35;;;0.35;37.02
59588;BME280;45412;54.472;18.464;2023-03-04T14:47:39;99295.02;;;0.19;37.44
59588;BME280;45412;54.472;18.464;2023-03-04T14:50:28;99299.92;;;-0.05;35.99
59588;BME280;45412;54.472;18.464;2023-03-04T14:53:20;99294.29;;;-0.19;35.08
59588;BME280;45412;54.472;18.464;2023-03-04T14:56:09;99295.48;;;-0.26;35.32
59588;BME280;45412;54.472;18.464;2023-03-04T14:58:58;99299.15;;;-0.38;35.96
59588;BME280;45412;54.472;18.464;2023-03-04T15:01:47;99299.88;;;-0.39;36.36
59588;BME280;45412;54.472;18.464;2023-03-04T15:04:40;99295.55;;;-0.40;34.60
59588;BME280;45412;54.472;18.464;2023-03-04T15:07:36;99302.25;;;-0.37;33.71
59588;BME280;45412;54.472;18.464;2023-03-04T15:10:36;99301.96;;;-0.38;32.77
59588;BME280;45412;54.472;18.464;2023-03-04T15:13:44;99299.27;;;-0.40;32.62
59588;BME280;45412;54.472;18.464;2023-03-04T15:16:54;99301.38;;;-0.37;33.62
59588;BME280;45412;54.472;18.464;2023-03-04T15:19:43;99300.33;;;-0.41;33.56
59588;BME280;45412;54.472;18.464;2023-03-04T15:22:56;99303.20;;;-0.43;33.42
59588;BME280;45412;54.472;18.464;2023-03-04T15:25:50;99301.64;;;-0.51;33.16
59588;BME280;45412;54.472;18.464;2023-03-04T15:28:40;99298.26;;;-0.61;33.57
59588;BME280;45412;54.472;18.464;2023-03-04T15:31:29;99298.80;;;-0.70;33.53
59588;BME280;45412;54.472;18.464;2023-03-04T15:34:19;99301.16;;;-0.80;33.34
59588;BME280;45412;54.472;18.464;2023-03-04T15:37:17;99300.77;;;-0.91;33.66
59588;BME280;45412;54.472;18.464;2023-03-04T15:40:29;99303.91;;;-0.99;33.75
59588;BME280;45412;54.472;18.464;2023-03-04T15:43:20;99298.87;;;-1.08;33.97
59588;BME280;45412;54.472;18.464;2023-03-04T15:46:10;99299.45;;;-1.14;34.34
59588;BME280;45412;54.472;18.464;2023-03-04T15:48:59;99298.65;;;-1.20;34.48
59588;BME280;45412;54.472;18.464;2023-03-04T15:51:47;99298.76;;;-1.27;34.72
59588;BME280;45412;54.472;18.464;2023-03-04T15:54:37;99303.46;;;-1.31;35.16
59588;BME280;45412;54.472;18.464;2023-03-04T15:57:26;99305.06;;;-1.36;35.05
59588;BME280;45412;54.472;18.464;2023-03-04T16:00:15;99306.11;;;-1.41;34.82
59588;BME280;45412;54.472;18.464;2023-03-04T16:03:04;99306.94;;;-1.44;34.86
59588;BME280;45412;54.472;18.464;2023-03-04T16:05:52;99309.64;;;-1.46;35.47
59588;BME280;45412;54.472;18.464;2023-03-04T16:08:41;99313.44;;;-1.50;35.62
59588;BME280;45412;54.472;18.464;2023-03-04T16:11:42;99314.70;;;-1.55;36.08
59588;BME280;45412;54.472;18.464;2023-03-04T16:14:33;99317.73;;;-1.61;36.05
59588;BME280;45412;54.472;18.464;2023-03-04T16:17:23;99320.55;;;-1.67;36.43
59588;BME280;45412;54.472;18.464;2023-03-04T16:20:28;99317.64;;;-1.72;36.38
59588;BME280;45412;54.472;18.464;2023-03-04T16:23:26;99322.91;;;-1.78;36.94
59588;BME280;45412;54.472;18.464;2023-03-04T16:26:32;99321.59;;;-1.84;36.55
59588;BME280;45412;54.472;18.464;2023-03-04T16:29:25;99324.77;;;-1.90;37.00
59588;BME280;45412;54.472;18.464;2023-03-04T16:32:16;99324.30;;;-1.96;36.79